sensor_id;sensor_type;location;lat;lon;timestamp;temperature;humidity
1994;DHT22;998;49.906;10.908;2024-01-11T00:02:26;-1.70;99.90
1994;DHT22;998;49.906;10.908;2024-01-11T00:07:21;-2.20;99.90
1994;DHT22;998;49.906;10.908;2024-01-11T00:09:48;-2.80;99.90
1994;DHT22;998;49.906;10.908;2024-01-11T00:12:16;-2.00;99.90
1994;DHT22;998;49.906;10.908;2024-01-11T00:14:43;-2.00;99.90
1994;DHT22;998;49.906;10.908;2024-01-11T00:17:11;-2.20;99.90
1994;DHT22;998;49.906;10.908;2024-01-11T00:19:40;-2.50;99.90
1994;DHT22;998;49.906;10.908;2024-01-11T00:22:07;-2.70;99.90
1994;DHT22;998;49.906;10.908;2024-01-11T00:24:35;-2.20;99.90
1994;DHT22;998;49.906;10.908;2024-01-11T00:27:02;-2.70;99.90
1994;DHT22;998;49.906;10.908;2024-01-11T00:29:29;-2.30;99.90
1994;DHT22;998;49.906;10.908;2024-01-11T00:31:57;-2.20;99.90
1994;DHT22;998;49.906;10.908;2024-01-11T00:36:53;-2.50;99.90
1994;DHT22;998;49.906;10.908;2024-01-11T00:39:20;-2.90;99.90
1994;DHT22;998;49.906;10.908;2024-01-11T00:41:48;-2.30;99.90
1994;DHT22;998;49.906;10.908;2024-01-11T00:44:15;-2.40;99.90
1994;DHT22;998;49.906;10.908;2024-01-11T00:46:43;-3.30;99.90
1994;DHT22;998;49.906;10.908;2024-01-11T00:49:10;-1.80;99.90
1994;DHT22;998;49.906;10.908;2024-01-11T00:51:37;-2.20;99.90
1994;DHT22;998;49.906;10.908;2024-01-11T00:54:06;-2.40;99.90
1994;DHT22;998;49.906;10.908;2024-01-11T00:56:34;-2.50;99.90
1994;DHT22;998;49.906;10.908;2024-01-11T00:59:01;-2.30;99.90
1994;DHT22;998;49.906;10.908;2024-01-11T01:01:29;-2.60;99.90
1994;DHT22;998;49.906;10.908;2024-01-11T01:03:56;-2.50;99.90
1994;DHT22;998;49.906;10.908;2024-01-11T01:06:23;-2.90;99.90
1994;DHT22;998;49.906;10.908;2024-01-11T01:11:20;-2.50;99.90
1994;DHT22;998;49.906;10.908;2024-01-11T01:13:47;-2.60;99.90
1994;DHT22;998;49.906;10.908;2024-01-11T01:16:14;-2.60;99.90
1994;DHT22;998;49.906;10.908;2024-01-11T01:18:43;-2.60;99.90
1994;DHT22;998;49.906;10.908;2024-01-11T01:21:11;-2.70;99.90
1994;DHT22;998;49.906;10.908;2024-01-11T01:23:38;-2.60;99.90
1994;DHT22;998;49.906;10.908;2024-01-11T01:26:06;-2.40;99.90
1994;DHT22;998;49.906;10.908;2024-01-11T01:28:35;-2.60;99.90
1994;DHT22;998;49.906;10.908;2024-01-11T01:31:03;-2.60;99.90
1994;DHT22;998;49.906;10.908;2024-01-11T01:33:30;-2.60;99.90
1994;DHT22;998;49.906;10.908;2024-01-11T01:35:58;-2.70;99.90
1994;DHT22;998;49.906;10.908;2024-01-11T01:40:53;-2.70;99.90
1994;DHT22;998;49.906;10.908;2024-01-11T01:43:20;-2.50;99.90
1994;DHT22;998;49.906;10.908;2024-01-11T01:45:49;-2.70;99.90
1994;DHT22;998;49.906;10.908;2024-01-11T01:48:16;-2.50;99.90
1994;DHT22;998;49.906;10.908;2024-01-11T01:50:44;-2.30;99.90
1994;DHT22;998;49.906;10.908;2024-01-11T01:53:16;-2.60;99.90
1994;DHT22;998;49.906;10.908;2024-01-11T01:55:44;-2.60;99.90
1994;DHT22;998;49.906;10.908;2024-01-11T01:58:12;-2.60;99.90
1994;DHT22;998;49.906;10.908;2024-01-11T02:00:40;-2.50;99.90
1994;DHT22;998;49.906;10.908;2024-01-11T02:03:09;-2.70;99.90
1994;DHT22;998;49.906;10.908;2024-01-11T02:05:37;-2.70;99.90
1994;DHT22;998;49.906;10.908;2024-01-11T02:08:07;-2.50;99.90
1994;DHT22;998;49.906;10.908;2024-01-11T02:10:35;-2.80;99.90
1994;DHT22;998;49.906;10.908;2024-01-11T02:13:03;-2.70;99.90
1994;DHT22;998;49.906;10.908;2024-01-11T02:15:31;-2.70;99.90
1994;DHT22;998;49.906;10.908;2024-01-11T02:17:59;-2.80;99.90
1994;DHT22;998;49.906;10.908;2024-01-11T02:20:27;-2.70;99.90
1994;DHT22;998;49.906;10.908;2024-01-11T02:23:01;-2.70;99.90
1994;DHT22;998;49.906;10.908;2024-01-11T02:25:32;-2.70;99.90
1994;DHT22;998;49.906;10.908;2024-01-11T02:27:59;-2.60;99.90
1994;DHT22;998;49.906;10.908;2024-01-11T02:30:27;-2.80;99.90
1994;DHT22;998;49.906;10.908;2024-01-11T02:32:54;-2.60;99.90
1994;DHT22;998;49.906;10.908;2024-01-11T02:35:21;-2.50;99.90
1994;DHT22;998;49.906;10.908;2024-01-11T02:37:50;-2.90;99.90
1994;DHT22;998;49.906;10.908;2024-01-11T02:40:19;-2.90;99.90
1994;DHT22;998;49.906;10.908;2024-01-11T02:42:47;-2.80;99.90
1994;DHT22;998;49.906;10.908;2024-01-11T02:45:14;-2.90;99.90
1994;DHT22;998;49.906;10.908;2024-01-11T02:47:41;-2.90;99.90
1994;DHT22;998;49.906;10.908;2024-01-11T02:50:09;-3.00;99.90
1994;DHT22;998;49.906;10.908;2024-01-11T02:52:37;-3.00;99.90
1994;DHT22;998;49.906;10.908;2024-01-11T02:55:05;-4.20;99.90
1994;DHT22;998;49.906;10.908;2024-01-11T02:57:33;-3.10;99.90
1994;DHT22;998;49.906;10.908;2024-01-11T03:00:02;-3.10;99.90
1994;DHT22;998;49.906;10.908;2024-01-11T03:04:56;-3.10;99.90
1994;DHT22;998;49.906;10.908;2024-01-11T03:07:23;-3.50;99.90
1994;DHT22;998;49.906;10.908;2024-01-11T03:09:51;-3.10;99.90
1994;DHT22;998;49.906;10.908;2024-01-11T03:12:19;-3.00;99.90
1994;DHT22;998;49.906;10.908;2024-01-11T03:14:46;-3.30;99.90
1994;DHT22;998;49.906;10.908;2024-01-11T03:17:15;-3.20;99.90
1994;DHT22;998;49.906;10.908;2024-01-11T03:22:12;-3.30;99.90
1994;DHT22;998;49.906;10.908;2024-01-11T03:24:39;-3.30;99.90
1994;DHT22;998;49.906;10.908;2024-01-11T03:27:07;-3.00;99.90
1994;DHT22;998;49.906;10.908;2024-01-11T03:29:34;-3.20;99.90
1994;DHT22;998;49.906;10.908;2024-01-11T03:34:30;-2.60;99.90
1994;DHT22;998;49.906;10.908;2024-01-11T03:36:58;-3.60;99.90
1994;DHT22;998;49.906;10.908;2024-01-11T03:39:25;-1.70;99.90
1994;DHT22;998;49.906;10.908;2024-01-11T03:41:53;-3.20;99.90
1994;DHT22;998;49.906;10.908;2024-01-11T03:44:20;-3.40;99.90
1994;DHT22;998;49.906;10.908;2024-01-11T03:46:48;-3.50;99.90
1994;DHT22;998;49.906;10.908;2024-01-11T03:49:15;-3.30;99.90
1994;DHT22;998;49.906;10.908;2024-01-11T03:51:44;-3.10;99.90
1994;DHT22;998;49.906;10.908;2024-01-11T03:56:39;-3.20;99.90
1994;DHT22;998;49.906;10.908;2024-01-11T03:59:06;-3.40;99.90
1994;DHT22;998;49.906;10.908;2024-01-11T04:01:38;-3.40;99.90
1994;DHT22;998;49.906;10.908;2024-01-11T04:04:05;-3.20;99.90
1994;DHT22;998;49.906;10.908;2024-01-11T04:06:32;-3.50;99.90
1994;DHT22;998;49.906;10.908;2024-01-11T04:09:01;-3.50;99.90
1994;DHT22;998;49.906;10.908;2024-01-11T04:11:29;-3.60;99.90
1994;DHT22;998;49.906;10.908;2024-01-11T04:16:24;-3.70;99.90
1994;DHT22;998;49.906;10.908;2024-01-11T04:21:22;-3.40;99.90
1994;DHT22;998;49.906;10.908;2024-01-11T04:23:50;-4.00;99.90
1994;DHT22;998;49.906;10.908;2024-01-11T04:26:19;-3.50;99.90
1994;DHT22;998;49.906;10.908;2024-01-11T04:28:47;-3.60;99.90
1994;DHT22;998;49.906;10.908;2024-01-11T04:31:15;-3.50;99.90
1994;DHT22;998;49.906;10.908;2024-01-11T04:33:43;-3.40;99.90
1994;DHT22;998;49.906;10.908;2024-01-11T04:36:12;-3.70;99.90
1994;DHT22;998;49.906;10.908;2024-01-11T04:38:39;-3.50;99.90
1994;DHT22;998;49.906;10.908;2024-01-11T04:41:08;-3.40;99.90
1994;DHT22;998;49.906;10.908;2024-01-11T04:43:38;-3.70;99.90
1994;DHT22;998;49.906;10.908;2024-01-11T04:46:13;-3.70;99.90
1994;DHT22;998;49.906;10.908;2024-01-11T04:48:41;-3.70;99.90
1994;DHT22;998;49.906;10.908;2024-01-11T04:51:08;-3.70;99.90
1994;DHT22;998;49.906;10.908;2024-01-11T04:53:39;-3.70;99.90
1994;DHT22;998;49.906;10.908;2024-01-11T04:56:07;-3.80;99.90
1994;DHT22;998;49.906;10.908;2024-01-11T04:58:34;-3.60;99.90
1994;DHT22;998;49.906;10.908;2024-01-11T05:01:05;-3.70;99.90
1994;DHT22;998;49.906;10.908;2024-01-11T05:03:32;-3.80;99.90
1994;DHT22;998;49.906;10.908;2024-01-11T05:06:00;-3.90;99.90
1994;DHT22;998;49.906;10.908;2024-01-11T05:08:27;-3.70;99.90
1994;DHT22;998;49.906;10.908;2024-01-11T05:10:55;-3.80;99.90
1994;DHT22;998;49.906;10.908;2024-01-11T05:15:50;-4.00;99.90
1994;DHT22;998;49.906;10.908;2024-01-11T05:18:19;-4.10;99.90
1994;DHT22;998;49.906;10.908;2024-01-11T05:20:46;-3.90;99.90
1994;DHT22;998;49.906;10.908;2024-01-11T05:23:13;-3.70;99.90
1994;DHT22;998;49.906;10.908;2024-01-11T05:25:41;-3.70;99.90
1994;DHT22;998;49.906;10.908;2024-01-11T05:28:08;-3.80;99.90
1994;DHT22;998;49.906;10.908;2024-01-11T05:30:36;-4.20;99.90
1994;DHT22;998;49.906;10.908;2024-01-11T05:33:04;-3.90;99.90
1994;DHT22;998;49.906;10.908;2024-01-11T05:35:32;-3.90;99.90
1994;DHT22;998;49.906;10.908;2024-01-11T05:38:00;-4.00;99.90
1994;DHT22;998;49.906;10.908;2024-01-11T05:40:27;-4.20;99.90
1994;DHT22;998;49.906;10.908;2024-01-11T05:42:55;-4.50;99.90
1994;DHT22;998;49.906;10.908;2024-01-11T05:45:22;-4.60;99.90
1994;DHT22;998;49.906;10.908;2024-01-11T05:47:49;-4.20;99.90
1994;DHT22;998;49.906;10.908;2024-01-11T05:50:17;-4.20;99.90
1994;DHT22;998;49.906;10.908;2024-01-11T05:52:45;-4.30;99.90
1994;DHT22;998;49.906;10.908;2024-01-11T05:55:13;-4.30;99.90
1994;DHT22;998;49.906;10.908;2024-01-11T05:57:40;-4.70;99.90
1994;DHT22;998;49.906;10.908;2024-01-11T06:00:08;-4.50;99.90
1994;DHT22;998;49.906;10.908;2024-01-11T06:02:36;-4.60;99.90
1994;DHT22;998;49.906;10.908;2024-01-11T06:05:05;-4.50;99.90
1994;DHT22;998;49.906;10.908;2024-01-11T06:07:35;-4.40;99.90
1994;DHT22;998;49.906;10.908;2024-01-11T06:10:04;-4.50;99.90
1994;DHT22;998;49.906;10.908;2024-01-11T06:12:32;-4.50;99.90
1994;DHT22;998;49.906;10.908;2024-01-11T06:14:59;-3.50;99.90
1994;DHT22;998;49.906;10.908;2024-01-11T06:17:27;-4.50;99.90
1994;DHT22;998;49.906;10.908;2024-01-11T06:22:22;-4.40;99.90
1994;DHT22;998;49.906;10.908;2024-01-11T06:24:49;-4.80;99.90
1994;DHT22;998;49.906;10.908;2024-01-11T06:27:18;-4.70;99.90
1994;DHT22;998;49.906;10.908;2024-01-11T06:29:45;-4.70;99.90
1994;DHT22;998;49.906;10.908;2024-01-11T06:32:13;-4.60;99.90
1994;DHT22;998;49.906;10.908;2024-01-11T06:34:40;-4.40;99.90
1994;DHT22;998;49.906;10.908;2024-01-11T06:37:11;-4.60;99.90
1994;DHT22;998;49.906;10.908;2024-01-11T06:39:39;-4.80;99.90
1994;DHT22;998;49.906;10.908;2024-01-11T06:42:06;-4.50;99.90
1994;DHT22;998;49.906;10.908;2024-01-11T06:44:35;-3.80;99.90
1994;DHT22;998;49.906;10.908;2024-01-11T06:47:03;-4.50;99.90
1994;DHT22;998;49.906;10.908;2024-01-11T06:49:31;-3.90;99.90
1994;DHT22;998;49.906;10.908;2024-01-11T06:51:59;-4.50;99.90
1994;DHT22;998;49.906;10.908;2024-01-11T06:54:26;-4.50;99.90
1994;DHT22;998;49.906;10.908;2024-01-11T06:59:21;-4.50;99.90
1994;DHT22;998;49.906;10.908;2024-01-11T07:01:50;-4.50;99.90
1994;DHT22;998;49.906;10.908;2024-01-11T07:04:17;-4.50;99.90
1994;DHT22;998;49.906;10.908;2024-01-11T07:06:44;-4.50;99.90
1994;DHT22;998;49.906;10.908;2024-01-11T07:09:12;-4.80;99.90
1994;DHT22;998;49.906;10.908;2024-01-11T07:11:40;-4.50;99.90
1994;DHT22;998;49.906;10.908;2024-01-11T07:14:07;-4.60;99.90
1994;DHT22;998;49.906;10.908;2024-01-11T07:16:35;-4.60;99.90
1994;DHT22;998;49.906;10.908;2024-01-11T07:19:04;-4.80;99.90
1994;DHT22;998;49.906;10.908;2024-01-11T07:21:31;-4.40;99.90
1994;DHT22;998;49.906;10.908;2024-01-11T07:23:59;-4.70;99.90
1994;DHT22;998;49.906;10.908;2024-01-11T07:26:27;-5.40;99.90
1994;DHT22;998;49.906;10.908;2024-01-11T07:31:22;-4.70;99.90
1994;DHT22;998;49.906;10.908;2024-01-11T07:33:49;-4.70;99.90
1994;DHT22;998;49.906;10.908;2024-01-11T07:36:18;-4.70;99.90
1994;DHT22;998;49.906;10.908;2024-01-11T07:38:45;-4.70;99.90
1994;DHT22;998;49.906;10.908;2024-01-11T07:41:13;-4.50;99.90
1994;DHT22;998;49.906;10.908;2024-01-11T07:43:40;-4.60;99.90
1994;DHT22;998;49.906;10.908;2024-01-11T07:46:08;-4.50;99.90
1994;DHT22;998;49.906;10.908;2024-01-11T07:48:36;-4.50;99.90
1994;DHT22;998;49.906;10.908;2024-01-11T07:51:04;-4.40;99.90
1994;DHT22;998;49.906;10.908;2024-01-11T07:53:33;-4.50;99.90
1994;DHT22;998;49.906;10.908;2024-01-11T07:56:00;-4.40;99.90
1994;DHT22;998;49.906;10.908;2024-01-11T07:58:27;-4.60;99.90
1994;DHT22;998;49.906;10.908;2024-01-11T08:00:55;-4.30;99.90
1994;DHT22;998;49.906;10.908;2024-01-11T08:03:22;-4.40;99.90
1994;DHT22;998;49.906;10.908;2024-01-11T08:05:49;-4.70;99.90
1994;DHT22;998;49.906;10.908;2024-01-11T08:08:17;-4.50;99.90
1994;DHT22;998;49.906;10.908;2024-01-11T08:10:46;-4.40;99.90
1994;DHT22;998;49.906;10.908;2024-01-11T08:13:15;-4.50;99.90
1994;DHT22;998;49.906;10.908;2024-01-11T08:15:43;-4.50;99.90
1994;DHT22;998;49.906;10.908;2024-01-11T08:20:39;-4.40;99.90
1994;DHT22;998;49.906;10.908;2024-01-11T08:23:06;-4.30;99.90
1994;DHT22;998;49.906;10.908;2024-01-11T08:28:03;-4.10;99.90
1994;DHT22;998;49.906;10.908;2024-01-11T08:30:31;-4.20;99.90
1994;DHT22;998;49.906;10.908;2024-01-11T08:32:58;-4.50;99.90
1994;DHT22;998;49.906;10.908;2024-01-11T08:35:26;-4.10;99.90
1994;DHT22;998;49.906;10.908;2024-01-11T08:37:53;-4.40;99.90
1994;DHT22;998;49.906;10.908;2024-01-11T08:40:20;-4.60;99.90
1994;DHT22;998;49.906;10.908;2024-01-11T08:42:48;-3.80;99.90
1994;DHT22;998;49.906;10.908;2024-01-11T08:45:17;-4.20;99.90
1994;DHT22;998;49.906;10.908;2024-01-11T08:47:44;-4.30;99.90
1994;DHT22;998;49.906;10.908;2024-01-11T08:50:13;-3.90;99.90
1994;DHT22;998;49.906;10.908;2024-01-11T08:52:41;-4.20;99.90
1994;DHT22;998;49.906;10.908;2024-01-11T08:55:08;-3.90;99.90
1994;DHT22;998;49.906;10.908;2024-01-11T08:57:38;-4.50;99.90
1994;DHT22;998;49.906;10.908;2024-01-11T09:00:06;-4.10;99.90
1994;DHT22;998;49.906;10.908;2024-01-11T09:02:35;-4.10;99.90
1994;DHT22;998;49.906;10.908;2024-01-11T09:05:03;-4.00;99.90
1994;DHT22;998;49.906;10.908;2024-01-11T09:07:33;-4.10;99.90
1994;DHT22;998;49.906;10.908;2024-01-11T09:10:00;-3.90;99.90
1994;DHT22;998;49.906;10.908;2024-01-11T09:12:27;-4.00;99.90
1994;DHT22;998;49.906;10.908;2024-01-11T09:14:55;-3.80;99.90
1994;DHT22;998;49.906;10.908;2024-01-11T09:17:22;-3.80;99.90
1994;DHT22;998;49.906;10.908;2024-01-11T09:19:51;-3.80;99.90
1994;DHT22;998;49.906;10.908;2024-01-11T09:22:18;-4.00;99.90
1994;DHT22;998;49.906;10.908;2024-01-11T09:24:46;-3.70;99.90
1994;DHT22;998;49.906;10.908;2024-01-11T09:27:13;-4.00;99.90
1994;DHT22;998;49.906;10.908;2024-01-11T09:29:43;-4.30;99.90
1994;DHT22;998;49.906;10.908;2024-01-11T09:32:11;-3.70;99.90
1994;DHT22;998;49.906;10.908;2024-01-11T09:37:07;-3.60;99.90
1994;DHT22;998;49.906;10.908;2024-01-11T09:39:35;-3.10;99.90
1994;DHT22;998;49.906;10.908;2024-01-11T09:42:07;-3.50;99.90
1994;DHT22;998;49.906;10.908;2024-01-11T09:44:36;-3.20;99.90
1994;DHT22;998;49.906;10.908;2024-01-11T09:47:06;-3.30;99.90
1994;DHT22;998;49.906;10.908;2024-01-11T09:49:36;-3.30;99.90
1994;DHT22;998;49.906;10.908;2024-01-11T09:52:07;-3.10;99.90
1994;DHT22;998;49.906;10.908;2024-01-11T09:54:36;-2.90;99.90
1994;DHT22;998;49.906;10.908;2024-01-11T09:57:07;-2.80;99.90
1994;DHT22;998;49.906;10.908;2024-01-11T09:59:36;-3.40;99.90
1994;DHT22;998;49.906;10.908;2024-01-11T10:02:03;-2.40;99.90
1994;DHT22;998;49.906;10.908;2024-01-11T10:04:34;-2.60;99.90
1994;DHT22;998;49.906;10.908;2024-01-11T10:07:04;-2.50;99.90
1994;DHT22;998;49.906;10.908;2024-01-11T10:09:34;-2.60;99.90
1994;DHT22;998;49.906;10.908;2024-01-11T10:12:02;-2.40;99.90
1994;DHT22;998;49.906;10.908;2024-01-11T10:14:31;-2.50;99.90
1994;DHT22;998;49.906;10.908;2024-01-11T10:16:58;-2.50;99.90
1994;DHT22;998;49.906;10.908;2024-01-11T10:19:26;-2.20;99.90
1994;DHT22;998;49.906;10.908;2024-01-11T10:21:53;-2.30;99.90
1994;DHT22;998;49.906;10.908;2024-01-11T10:24:21;-2.50;99.90
1994;DHT22;998;49.906;10.908;2024-01-11T10:26:55;-1.60;99.90
1994;DHT22;998;49.906;10.908;2024-01-11T10:29:22;-2.00;99.90
1994;DHT22;998;49.906;10.908;2024-01-11T10:31:55;-1.70;99.90
1994;DHT22;998;49.906;10.908;2024-01-11T10:34:23;-1.90;99.90
1994;DHT22;998;49.906;10.908;2024-01-11T10:36:51;-1.80;99.90
1994;DHT22;998;49.906;10.908;2024-01-11T10:39:24;-1.50;99.90
1994;DHT22;998;49.906;10.908;2024-01-11T10:42:00;-1.10;99.90
1994;DHT22;998;49.906;10.908;2024-01-11T10:44:33;-1.10;99.90
1994;DHT22;998;49.906;10.908;2024-01-11T10:47:03;-0.70;99.90
1994;DHT22;998;49.906;10.908;2024-01-11T10:49:34;-0.60;99.90
1994;DHT22;998;49.906;10.908;2024-01-11T10:52:04;-0.10;99.90
1994;DHT22;998;49.906;10.908;2024-01-11T10:54:34;-0.10;99.90
1994;DHT22;998;49.906;10.908;2024-01-11T10:57:03;0.10;99.90
1994;DHT22;998;49.906;10.908;2024-01-11T10:59:32;0.20;99.90
1994;DHT22;998;49.906;10.908;2024-01-11T11:02:04;0.30;99.90
1994;DHT22;998;49.906;10.908;2024-01-11T11:04:37;0.70;99.90
1994;DHT22;998;49.906;10.908;2024-01-11T11:07:05;0.80;99.90
1994;DHT22;998;49.906;10.908;2024-01-11T11:09:34;1.00;99.90
1994;DHT22;998;49.906;10.908;2024-01-11T11:12:04;1.10;99.90
1994;DHT22;998;49.906;10.908;2024-01-11T11:14:34;1.30;99.90
1994;DHT22;998;49.906;10.908;2024-01-11T11:17:02;1.60;99.90
1994;DHT22;998;49.906;10.908;2024-01-11T11:19:30;1.60;99.90
1994;DHT22;998;49.906;10.908;2024-01-11T11:21:58;2.00;99.90
1994;DHT22;998;49.906;10.908;2024-01-11T11:24:26;2.10;99.90
1994;DHT22;998;49.906;10.908;2024-01-11T11:26:53;2.10;99.90
1994;DHT22;998;49.906;10.908;2024-01-11T11:29:24;2.30;99.90
1994;DHT22;998;49.906;10.908;2024-01-11T11:31:52;2.50;99.90
1994;DHT22;998;49.906;10.908;2024-01-11T11:34:20;2.70;99.90
1994;DHT22;998;49.906;10.908;2024-01-11T11:37:07;2.90;99.90
1994;DHT22;998;49.906;10.908;2024-01-11T11:39:35;2.80;99.90
1994;DHT22;998;49.906;10.908;2024-01-11T11:42:03;2.70;99.90
1994;DHT22;998;49.906;10.908;2024-01-11T11:44:32;2.80;99.90
1994;DHT22;998;49.906;10.908;2024-01-11T11:47:18;2.80;99.90
1994;DHT22;998;49.906;10.908;2024-01-11T11:50:06;2.90;99.90
1994;DHT22;998;49.906;10.908;2024-01-11T11:52:37;3.00;99.90
1994;DHT22;998;49.906;10.908;2024-01-11T11:55:07;3.10;99.90
1994;DHT22;998;49.906;10.908;2024-01-11T11:57:35;3.00;99.90
1994;DHT22;998;49.906;10.908;2024-01-11T12:00:06;3.10;99.90
1994;DHT22;998;49.906;10.908;2024-01-11T12:02:34;3.00;99.90
1994;DHT22;998;49.906;10.908;2024-01-11T12:05:03;3.30;99.90
1994;DHT22;998;49.906;10.908;2024-01-11T12:07:31;3.30;99.90
1994;DHT22;998;49.906;10.908;2024-01-11T12:09:59;3.50;99.90
1994;DHT22;998;49.906;10.908;2024-01-11T12:12:27;3.40;99.90
1994;DHT22;998;49.906;10.908;2024-01-11T12:14:55;3.70;99.90
1994;DHT22;998;49.906;10.908;2024-01-11T12:17:24;3.80;99.90
1994;DHT22;998;49.906;10.908;2024-01-11T12:19:52;4.00;99.90
1994;DHT22;998;49.906;10.908;2024-01-11T12:22:20;3.90;99.90
1994;DHT22;998;49.906;10.908;2024-01-11T12:24:47;3.70;99.90
1994;DHT22;998;49.906;10.908;2024-01-11T12:27:15;3.80;99.90
1994;DHT22;998;49.906;10.908;2024-01-11T12:29:43;3.70;99.90
1994;DHT22;998;49.906;10.908;2024-01-11T12:32:10;3.80;99.90
1994;DHT22;998;49.906;10.908;2024-01-11T12:34:40;4.00;99.90
1994;DHT22;998;49.906;10.908;2024-01-11T12:37:08;4.10;99.90
1994;DHT22;998;49.906;10.908;2024-01-11T12:39:38;4.20;99.90
1994;DHT22;998;49.906;10.908;2024-01-11T12:42:06;4.30;99.90
1994;DHT22;998;49.906;10.908;2024-01-11T12:44:35;4.30;99.90
1994;DHT22;998;49.906;10.908;2024-01-11T12:49:32;4.40;99.90
1994;DHT22;998;49.906;10.908;2024-01-11T12:52:01;4.20;99.90
1994;DHT22;998;49.906;10.908;2024-01-11T12:54:32;4.50;99.90
1994;DHT22;998;49.906;10.908;2024-01-11T12:57:01;4.70;99.90
1994;DHT22;998;49.906;10.908;2024-01-11T12:59:29;4.60;99.90
1994;DHT22;998;49.906;10.908;2024-01-11T13:01:57;4.70;99.90
1994;DHT22;998;49.906;10.908;2024-01-11T13:04:25;4.80;99.90
1994;DHT22;998;49.906;10.908;2024-01-11T13:06:53;4.80;99.90
1994;DHT22;998;49.906;10.908;2024-01-11T13:09:23;4.80;99.90
1994;DHT22;998;49.906;10.908;2024-01-11T13:11:50;4.90;99.90
1994;DHT22;998;49.906;10.908;2024-01-11T13:14:18;4.90;99.90
1994;DHT22;998;49.906;10.908;2024-01-11T13:16:46;4.90;99.90
1994;DHT22;998;49.906;10.908;2024-01-11T13:19:14;4.90;99.90
1994;DHT22;998;49.906;10.908;2024-01-11T13:21:42;4.80;99.90
1994;DHT22;998;49.906;10.908;2024-01-11T13:46:25;5.00;99.40
1994;DHT22;998;49.906;10.908;2024-01-11T13:48:53;5.00;99.50
1994;DHT22;998;49.906;10.908;2024-01-11T13:51:20;5.00;99.10
1994;DHT22;998;49.906;10.908;2024-01-11T13:53:48;4.90;99.10
1994;DHT22;998;49.906;10.908;2024-01-11T13:56:15;4.90;99.00
1994;DHT22;998;49.906;10.908;2024-01-11T13:58:43;5.20;98.60
1994;DHT22;998;49.906;10.908;2024-01-11T14:01:12;5.30;98.80
1994;DHT22;998;49.906;10.908;2024-01-11T14:03:40;5.20;98.20
1994;DHT22;998;49.906;10.908;2024-01-11T14:06:07;5.00;98.50
1994;DHT22;998;49.906;10.908;2024-01-11T14:08:35;5.00;99.20
1994;DHT22;998;49.906;10.908;2024-01-11T14:11:03;4.90;99.10
1994;DHT22;998;49.906;10.908;2024-01-11T14:13:31;4.90;98.70
1994;DHT22;998;49.906;10.908;2024-01-11T14:15:59;4.80;98.40
1994;DHT22;998;49.906;10.908;2024-01-11T14:18:27;4.80;98.00
1994;DHT22;998;49.906;10.908;2024-01-11T14:20:55;4.70;97.80
1994;DHT22;998;49.906;10.908;2024-01-11T14:23:22;4.80;96.80
1994;DHT22;998;49.906;10.908;2024-01-11T14:25:50;4.70;97.30
1994;DHT22;998;49.906;10.908;2024-01-11T14:28:17;4.70;97.80
1994;DHT22;998;49.906;10.908;2024-01-11T14:30:44;4.50;98.20
1994;DHT22;998;49.906;10.908;2024-01-11T14:33:12;4.50;97.60
1994;DHT22;998;49.906;10.908;2024-01-11T14:35:41;4.50;97.70
1994;DHT22;998;49.906;10.908;2024-01-11T14:38:09;4.40;97.90
1994;DHT22;998;49.906;10.908;2024-01-11T14:40:36;4.30;97.90
1994;DHT22;998;49.906;10.908;2024-01-11T14:43:04;4.40;97.60
1994;DHT22;998;49.906;10.908;2024-01-11T14:45:31;4.50;97.90
1994;DHT22;998;49.906;10.908;2024-01-11T14:47:59;4.50;97.90
1994;DHT22;998;49.906;10.908;2024-01-11T14:50:26;4.50;96.90
1994;DHT22;998;49.906;10.908;2024-01-11T14:52:55;4.50;97.40
1994;DHT22;998;49.906;10.908;2024-01-11T14:55:23;4.40;97.90
1994;DHT22;998;49.906;10.908;2024-01-11T14:57:50;4.30;97.80
1994;DHT22;998;49.906;10.908;2024-01-11T15:00:18;4.20;98.80
1994;DHT22;998;49.906;10.908;2024-01-11T15:02:46;4.20;99.10
1994;DHT22;998;49.906;10.908;2024-01-11T15:05:15;4.10;99.10
1994;DHT22;998;49.906;10.908;2024-01-11T15:07:42;4.00;99.20
1994;DHT22;998;49.906;10.908;2024-01-11T15:10:11;4.00;99.40
1994;DHT22;998;49.906;10.908;2024-01-11T15:12:39;3.90;99.90
1994;DHT22;998;49.906;10.908;2024-01-11T15:15:07;3.90;99.90
1994;DHT22;998;49.906;10.908;2024-01-11T15:17:35;3.90;99.90
1994;DHT22;998;49.906;10.908;2024-01-11T15:20:02;3.90;99.90
1994;DHT22;998;49.906;10.908;2024-01-11T15:22:30;3.70;99.90
1994;DHT22;998;49.906;10.908;2024-01-11T15:24:57;3.60;99.90
1994;DHT22;998;49.906;10.908;2024-01-11T15:27:27;3.50;99.90
1994;DHT22;998;49.906;10.908;2024-01-11T15:29:54;3.50;99.90
1994;DHT22;998;49.906;10.908;2024-01-11T15:32:22;3.40;99.90
1994;DHT22;998;49.906;10.908;2024-01-11T15:34:49;3.40;99.90
1994;DHT22;998;49.906;10.908;2024-01-11T15:37:18;3.40;99.90
1994;DHT22;998;49.906;10.908;2024-01-11T15:39:47;3.30;99.90
1994;DHT22;998;49.906;10.908;2024-01-11T15:42:15;3.30;99.90
1994;DHT22;998;49.906;10.908;2024-01-11T15:44:44;3.20;99.90
1994;DHT22;998;49.906;10.908;2024-01-11T15:47:12;3.20;99.90
1994;DHT22;998;49.906;10.908;2024-01-11T15:49:39;3.20;99.90
1994;DHT22;998;49.906;10.908;2024-01-11T15:52:07;3.20;99.90
1994;DHT22;998;49.906;10.908;2024-01-11T15:54:34;3.10;99.90
1994;DHT22;998;49.906;10.908;2024-01-11T15:57:02;3.00;99.90
1994;DHT22;998;49.906;10.908;2024-01-11T15:59:29;2.90;99.90
1994;DHT22;998;49.906;10.908;2024-01-11T16:01:59;2.90;99.90
1994;DHT22;998;49.906;10.908;2024-01-11T16:04:27;2.90;99.90
1994;DHT22;998;49.906;10.908;2024-01-11T16:06:54;2.80;99.90
1994;DHT22;998;49.906;10.908;2024-01-11T16:09:22;2.60;99.90
1994;DHT22;998;49.906;10.908;2024-01-11T16:11:50;2.70;99.90
1994;DHT22;998;49.906;10.908;2024-01-11T16:14:18;2.70;99.90
1994;DHT22;998;49.906;10.908;2024-01-11T16:16:45;2.60;99.90
1994;DHT22;998;49.906;10.908;2024-01-11T16:19:14;2.40;99.90
1994;DHT22;998;49.906;10.908;2024-01-11T16:21:43;2.50;99.90
1994;DHT22;998;49.906;10.908;2024-01-11T16:24:11;2.50;99.90
1994;DHT22;998;49.906;10.908;2024-01-11T16:26:38;2.40;99.90
1994;DHT22;998;49.906;10.908;2024-01-11T16:29:05;2.40;99.90
1994;DHT22;998;49.906;10.908;2024-01-11T16:31:33;2.40;99.90
1994;DHT22;998;49.906;10.908;2024-01-11T16:34:00;2.40;99.90
1994;DHT22;998;49.906;10.908;2024-01-11T16:36:30;2.40;99.90
1994;DHT22;998;49.906;10.908;2024-01-11T16:38:58;2.30;99.90
1994;DHT22;998;49.906;10.908;2024-01-11T16:41:29;2.30;99.90
1994;DHT22;998;49.906;10.908;2024-01-11T16:43:56;2.30;99.90
1994;DHT22;998;49.906;10.908;2024-01-11T16:46:24;2.20;99.90
1994;DHT22;998;49.906;10.908;2024-01-11T16:48:51;2.10;99.90
1994;DHT22;998;49.906;10.908;2024-01-11T16:51:18;2.00;99.90
1994;DHT22;998;49.906;10.908;2024-01-11T16:53:47;2.00;99.90
1994;DHT22;998;49.906;10.908;2024-01-11T16:56:14;1.90;99.90
1994;DHT22;998;49.906;10.908;2024-01-11T16:58:42;1.90;99.90
1994;DHT22;998;49.906;10.908;2024-01-11T17:01:09;1.90;99.90
1994;DHT22;998;49.906;10.908;2024-01-11T17:03:37;1.90;99.90
1994;DHT22;998;49.906;10.908;2024-01-11T17:06:05;1.90;99.90
1994;DHT22;998;49.906;10.908;2024-01-11T17:08:33;1.90;99.90
1994;DHT22;998;49.906;10.908;2024-01-11T17:11:02;1.90;99.90
1994;DHT22;998;49.906;10.908;2024-01-11T17:13:29;1.90;99.90
1994;DHT22;998;49.906;10.908;2024-01-11T17:15:57;1.90;99.90
1994;DHT22;998;49.906;10.908;2024-01-11T17:18:25;1.80;99.90
1994;DHT22;998;49.906;10.908;2024-01-11T17:20:52;1.80;99.90